createdAt,value
2023-05-25T00:01:49.323Z,17.58
2023-05-25T00:04:19.612Z,17.30
2023-05-25T00:06:47.632Z,17.32
2023-05-25T00:09:15.506Z,17.36
2023-05-25T00:11:43.349Z,17.18
2023-05-25T00:14:10.900Z,16.96
2023-05-25T00:16:40.538Z,17.12
2023-05-25T00:19:10.804Z,16.88
2023-05-25T00:21:39.405Z,17.17
2023-05-25T00:24:07.624Z,17.44
2023-05-25T00:26:35.764Z,17.08
2023-05-25T00:29:04.378Z,16.99
2023-05-25T00:31:33.536Z,17.01
2023-05-25T00:34:01.551Z,16.94
2023-05-25T00:36:28.996Z,17.16
2023-05-25T00:38:56.474Z,17.37
2023-05-25T00:41:25.148Z,17.31
2023-05-25T00:43:52.549Z,17.79
2023-05-25T00:46:20.083Z,17.93
2023-05-25T00:48:48.944Z,17.69
2023-05-25T00:51:17.397Z,17.79
2023-05-25T00:53:44.925Z,17.63
2023-05-25T00:56:18.177Z,17.63
2023-05-25T00:58:47.055Z,17.74
2023-05-25T01:01:15.654Z,17.71
2023-05-25T01:03:46.865Z,17.65
2023-05-25T01:06:15.944Z,17.89
2023-05-25T01:08:49.604Z,17.88
2023-05-25T01:11:20.266Z,18.26
2023-05-25T01:13:49.129Z,18.36
2023-05-25T01:16:17.131Z,18.43
2023-05-25T01:18:44.593Z,18.50
2023-05-25T01:21:37.930Z,18.63
2023-05-25T01:24:32.559Z,18.42
2023-05-25T01:27:05.828Z,18.50
2023-05-25T01:29:35.367Z,18.59
2023-05-25T01:32:04.581Z,18.86
2023-05-25T01:34:33.958Z,18.54
2023-05-25T01:37:01.985Z,18.28
2023-05-25T01:39:29.454Z,18.63
2023-05-25T01:41:57.016Z,18.63
2023-05-25T01:44:26.106Z,18.87
2023-05-25T01:47:04.594Z,18.78
2023-05-25T01:49:46.465Z,18.79
2023-05-25T01:52:22.204Z,18.68
2023-05-25T01:55:19.593Z,18.67
2023-05-25T01:57:50.640Z,18.69
2023-05-25T02:00:19.745Z,18.73
2023-05-25T02:02:48.335Z,18.54
2023-05-25T02:05:16.277Z,18.55
2023-05-25T02:07:43.736Z,18.68
2023-05-25T02:10:11.507Z,18.56
2023-05-25T02:12:38.922Z,18.60
2023-05-25T02:15:06.788Z,18.56
2023-05-25T02:17:37.241Z,18.74
2023-05-25T02:20:07.012Z,18.87
2023-05-25T02:22:35.058Z,18.79
2023-05-25T02:25:02.544Z,18.53
2023-05-25T02:27:30.724Z,18.51
2023-05-25T02:29:58.196Z,18.47
2023-05-25T02:32:26.096Z,18.46
2023-05-25T02:34:53.854Z,18.45
2023-05-25T02:37:21.291Z,18.44
2023-05-25T02:39:49.311Z,18.34
2023-05-25T02:42:17.057Z,18.46
2023-05-25T02:44:48.507Z,18.44
2023-05-25T02:47:16.654Z,18.30
2023-05-25T02:49:45.468Z,18.34
2023-05-25T02:52:13.057Z,18.29
2023-05-25T02:54:41.714Z,18.32
2023-05-25T02:57:10.265Z,18.34
2023-05-25T02:59:37.778Z,18.58
2023-05-25T03:02:05.571Z,18.50
2023-05-25T03:04:34.440Z,18.47
2023-05-25T03:07:02.425Z,18.36
2023-05-25T03:09:30.421Z,18.35
2023-05-25T03:12:00.761Z,18.32
2023-05-25T03:14:28.204Z,18.33
2023-05-25T03:16:56.369Z,18.46
2023-05-25T03:19:24.214Z,18.48
2023-05-25T03:21:51.621Z,18.46
2023-05-25T03:24:19.760Z,18.55
2023-05-25T03:26:47.565Z,18.12
2023-05-25T03:29:15.148Z,18.00
2023-05-25T03:31:42.646Z,18.14
2023-05-25T03:34:10.624Z,17.68
2023-05-25T03:36:39.103Z,17.67
2023-05-25T03:39:07.205Z,17.88
2023-05-25T03:41:35.090Z,17.68
2023-05-25T03:44:02.506Z,18.23
2023-05-25T03:46:29.935Z,17.96
2023-05-25T03:48:57.674Z,18.37
2023-05-25T03:51:25.099Z,18.16
2023-05-25T03:53:52.489Z,18.14
2023-05-25T03:56:20.248Z,18.17
2023-05-25T03:58:47.631Z,18.03
2023-05-25T04:01:15.074Z,18.02
2023-05-25T04:03:42.887Z,17.98
2023-05-25T04:06:10.374Z,17.98
2023-05-25T04:08:37.787Z,17.97
2023-05-25T04:11:05.985Z,18.29
2023-05-25T04:13:36.291Z,18.27
2023-05-25T04:16:03.981Z,18.60
2023-05-25T04:18:31.902Z,18.95
2023-05-25T04:20:59.861Z,19.19
2023-05-25T04:23:27.834Z,19.57
2023-05-25T04:25:55.864Z,19.63
2023-05-25T04:28:23.234Z,19.33
2023-05-25T04:30:51.359Z,19.84
2023-05-25T04:33:20.645Z,19.87
2023-05-25T04:35:50.588Z,19.79
2023-05-25T04:38:20.720Z,19.65
2023-05-25T04:40:48.471Z,19.41
2023-05-25T04:43:18.200Z,19.67
2023-05-25T04:45:47.157Z,19.13
2023-05-25T04:48:15.829Z,19.39
2023-05-25T04:50:43.424Z,19.41
2023-05-25T04:53:11.171Z,19.38
2023-05-25T04:55:40.068Z,19.59
2023-05-25T04:58:07.593Z,19.72
2023-05-25T05:00:35.044Z,19.31
2023-05-25T05:03:02.908Z,19.36
2023-05-25T05:05:30.825Z,19.31
2023-05-25T05:07:59.780Z,19.36
2023-05-25T05:10:27.618Z,19.36
2023-05-25T05:12:56.402Z,19.74
2023-05-25T05:15:23.881Z,19.50
2023-05-25T05:17:51.713Z,20.00
2023-05-25T05:20:19.321Z,19.83
2023-05-25T05:22:46.868Z,20.24
2023-05-25T05:25:14.579Z,20.38
2023-05-25T05:27:42.006Z,20.61
2023-05-25T05:30:10.224Z,20.54
2023-05-25T05:32:38.211Z,20.83
2023-05-25T05:35:06.088Z,21.24
2023-05-25T05:37:33.755Z,20.98
2023-05-25T05:40:01.529Z,21.46
2023-05-25T05:42:28.969Z,21.89
2023-05-25T05:44:56.399Z,21.48
2023-05-25T05:47:24.173Z,21.58
2023-05-25T05:49:51.725Z,21.97
2023-05-25T05:52:19.287Z,21.61
2023-05-25T05:54:46.976Z,21.44
2023-05-25T05:57:15.431Z,21.63
2023-05-25T05:59:43.308Z,21.84
2023-05-25T06:02:11.073Z,22.12
2023-05-25T06:04:39.055Z,22.31
2023-05-25T06:07:07.042Z,22.37
2023-05-25T06:09:35.465Z,21.51
2023-05-25T06:12:06.258Z,21.55
2023-05-25T06:14:34.520Z,21.37
2023-05-25T06:17:02.565Z,21.76
2023-05-25T06:19:30.686Z,21.87
2023-05-25T06:21:58.140Z,22.28
2023-05-25T06:24:25.721Z,22.41
2023-05-25T06:26:53.432Z,22.42
2023-05-25T06:29:21.026Z,22.47
2023-05-25T06:31:48.419Z,22.16
2023-05-25T06:34:16.083Z,22.27
2023-05-25T06:36:43.565Z,22.80
2023-05-25T06:39:11.050Z,22.77
2023-05-25T06:41:39.327Z,22.68
2023-05-25T06:44:07.436Z,21.59
2023-05-25T06:46:40.024Z,21.38
2023-05-25T06:49:09.071Z,21.35
2023-05-25T06:51:37.300Z,21.83
2023-05-25T06:54:04.883Z,21.95
2023-05-25T06:56:32.587Z,22.61
2023-05-25T06:59:00.161Z,22.90
2023-05-25T07:01:27.568Z,22.57
2023-05-25T07:03:55.280Z,22.62
2023-05-25T07:06:22.726Z,22.14
2023-05-25T07:08:50.152Z,22.22
2023-05-25T07:11:20.737Z,22.32
2023-05-25T07:13:48.462Z,22.55
2023-05-25T07:16:16.068Z,22.44
2023-05-25T07:18:43.825Z,22.53
2023-05-25T07:21:11.465Z,22.29
2023-05-25T07:23:41.100Z,22.19
2023-05-25T07:26:08.958Z,22.72
2023-05-25T07:28:36.344Z,22.67
2023-05-25T07:31:03.787Z,23.35
2023-05-25T07:33:31.540Z,22.85
2023-05-25T07:35:59.202Z,23.68
2023-05-25T07:38:26.710Z,23.06
2023-05-25T07:40:54.437Z,22.68
2023-05-25T07:43:22.250Z,22.89
2023-05-25T07:45:49.753Z,22.63
2023-05-25T07:48:18.762Z,23.44
2023-05-25T07:50:46.332Z,23.09
2023-05-25T07:53:13.882Z,23.35
2023-05-25T07:55:41.707Z,23.07
2023-05-25T07:58:09.141Z,23.32
2023-05-25T08:00:36.671Z,22.54
2023-05-25T08:03:04.748Z,23.24
2023-05-25T08:05:32.338Z,22.64
2023-05-25T08:07:59.786Z,22.70
2023-05-25T08:10:32.069Z,22.96
2023-05-25T08:12:59.762Z,23.27
2023-05-25T08:15:27.487Z,23.15
2023-05-25T08:17:56.516Z,23.44
2023-05-25T08:20:27.395Z,23.09
2023-05-25T08:22:55.110Z,23.69
2023-05-25T08:25:22.785Z,23.46
2023-05-25T08:27:50.409Z,23.30
2023-05-25T08:30:18.046Z,23.54
2023-05-25T08:32:45.543Z,23.09
2023-05-25T08:35:14.245Z,23.54
2023-05-25T08:37:43.511Z,23.48
2023-05-25T08:40:16.424Z,23.33
2023-05-25T08:42:45.205Z,23.10
2023-05-25T08:45:26.447Z,23.21
2023-05-25T08:48:01.571Z,23.66
2023-05-25T08:50:31.084Z,23.50
2023-05-25T08:53:02.725Z,23.85
2023-05-25T08:55:36.051Z,23.27
2023-05-25T08:58:10.684Z,23.95
2023-05-25T09:00:43.081Z,24.27
2023-05-25T09:03:20.688Z,24.51
2023-05-25T09:05:48.980Z,24.33
2023-05-25T09:08:17.357Z,24.55
2023-05-25T09:10:44.804Z,24.37
2023-05-25T09:13:21.805Z,24.32
2023-05-25T09:15:50.910Z,24.23
2023-05-25T09:18:18.933Z,24.62
2023-05-25T09:20:47.320Z,24.15
2023-05-25T09:23:16.019Z,24.60
2023-05-25T09:25:44.523Z,25.03
2023-05-25T09:30:42.557Z,25.72
2023-05-25T09:33:14.423Z,25.03
2023-05-25T09:35:41.885Z,25.82
2023-05-25T09:38:09.414Z,25.31
2023-05-25T09:40:38.268Z,25.19
2023-05-25T09:43:05.786Z,24.27
2023-05-25T09:45:33.337Z,24.54
2023-05-25T09:48:01.365Z,24.37
2023-05-25T09:50:29.689Z,24.55
2023-05-25T09:53:00.067Z,24.75
2023-05-25T09:55:40.063Z,25.07
2023-05-25T09:58:13.582Z,25.33
2023-05-25T10:00:41.546Z,25.05
2023-05-25T10:03:09.390Z,24.83
2023-05-25T10:05:36.793Z,25.03
2023-05-25T10:08:04.597Z,25.28
2023-05-25T10:10:32.522Z,25.33
2023-05-25T10:13:00.720Z,25.70
2023-05-25T10:15:28.356Z,25.76
2023-05-25T10:17:57.243Z,25.36
2023-05-25T10:20:28.267Z,24.82
2023-05-25T10:23:01.175Z,24.74
2023-05-25T10:25:34.829Z,25.33
2023-05-25T10:28:07.840Z,25.39
2023-05-25T10:30:37.027Z,25.63
2023-05-25T10:33:05.390Z,25.76
2023-05-25T10:35:42.392Z,25.85
2023-05-25T10:38:19.195Z,25.40
2023-05-25T10:40:50.832Z,25.45
2023-05-25T10:43:19.002Z,26.04
2023-05-25T10:45:47.854Z,25.62
2023-05-25T10:48:18.405Z,25.43
2023-05-25T10:50:51.940Z,25.53
2023-05-25T10:53:21.270Z,25.47
2023-05-25T10:55:51.973Z,25.58
2023-05-25T10:58:21.873Z,25.34
2023-05-25T11:01:02.708Z,25.59
2023-05-25T11:03:53.270Z,25.99
2023-05-25T11:06:22.881Z,25.96
2023-05-25T11:08:57.306Z,25.88
2023-05-25T11:11:43.111Z,25.51
2023-05-25T11:14:23.784Z,25.39
2023-05-25T11:17:12.039Z,25.43
2023-05-25T11:19:44.189Z,26.00
2023-05-25T11:22:18.031Z,25.17
2023-05-25T11:24:48.863Z,25.16
2023-05-25T11:27:22.735Z,25.44
2023-05-25T11:29:51.714Z,25.53
2023-05-25T11:32:19.370Z,25.68
2023-05-25T11:34:53.001Z,25.37
2023-05-25T11:37:22.044Z,25.10
2023-05-25T11:39:51.638Z,26.04
2023-05-25T11:42:23.943Z,25.89
2023-05-25T11:44:52.044Z,26.43
2023-05-25T11:47:23.203Z,26.16
2023-05-25T11:49:50.889Z,25.91
2023-05-25T11:52:20.059Z,26.66
2023-05-25T11:54:47.617Z,26.18
2023-05-25T11:57:17.127Z,26.50
2023-05-25T11:59:52.661Z,26.75
2023-05-25T12:02:20.977Z,27.15
2023-05-25T12:04:58.494Z,27.14
2023-05-25T12:07:26.808Z,26.88
2023-05-25T12:10:07.254Z,26.06
2023-05-25T12:12:42.069Z,26.57
2023-05-25T12:15:31.175Z,27.03
2023-05-25T12:17:58.684Z,26.91
2023-05-25T12:20:26.840Z,26.40
2023-05-25T12:22:54.430Z,26.37
2023-05-25T12:25:22.537Z,26.49
2023-05-25T12:28:10.146Z,27.17
2023-05-25T12:30:37.901Z,26.48
2023-05-25T12:33:06.032Z,26.72
2023-05-25T12:35:50.099Z,26.53
2023-05-25T12:38:19.815Z,26.39
2023-05-25T12:40:47.884Z,26.46
2023-05-25T12:43:16.958Z,27.29
2023-05-25T12:45:44.914Z,27.31
2023-05-25T12:48:12.696Z,27.22
2023-05-25T12:50:56.807Z,26.78
2023-05-25T12:53:25.247Z,27.41
2023-05-25T12:56:02.016Z,27.31
2023-05-25T12:58:30.247Z,27.23
2023-05-25T13:00:57.722Z,27.19
2023-05-25T13:03:25.148Z,27.29
2023-05-25T13:06:00.221Z,27.23
2023-05-25T13:08:28.682Z,27.54
2023-05-25T13:10:56.697Z,26.63
2023-05-25T13:13:24.131Z,27.14
2023-05-25T13:15:51.535Z,26.79
2023-05-25T13:18:19.230Z,26.35
2023-05-25T13:20:49.784Z,27.07
2023-05-25T13:23:18.888Z,26.74
2023-05-25T13:25:47.014Z,26.67
2023-05-25T13:28:14.369Z,26.44
2023-05-25T13:30:42.899Z,26.76
2023-05-25T13:33:10.946Z,26.57
2023-05-25T13:35:45.756Z,26.95
2023-05-25T13:38:15.723Z,26.46
2023-05-25T13:40:45.488Z,26.32
2023-05-25T13:43:13.531Z,26.53
2023-05-25T13:45:41.084Z,26.61
2023-05-25T13:48:09.059Z,26.69
2023-05-25T13:50:36.776Z,26.17
2023-05-25T13:53:04.190Z,26.37
2023-05-25T13:55:31.919Z,26.71
2023-05-25T13:57:59.733Z,26.63
2023-05-25T14:00:27.678Z,26.75
2023-05-25T14:02:55.610Z,26.27
2023-05-25T14:05:23.225Z,26.13
2023-05-25T14:07:50.712Z,26.85
2023-05-25T14:10:18.704Z,26.07
2023-05-25T14:12:46.152Z,26.36
2023-05-25T14:15:13.629Z,27.02
2023-05-25T14:17:41.358Z,26.92
2023-05-25T14:20:09.790Z,27.09
2023-05-25T14:22:37.234Z,27.06
2023-05-25T14:25:05.345Z,26.65
2023-05-25T14:27:32.797Z,26.50
2023-05-25T14:30:00.260Z,26.57
2023-05-25T14:32:27.963Z,26.96
2023-05-25T14:34:55.380Z,26.82
2023-05-25T14:37:22.797Z,26.65
2023-05-25T14:39:50.576Z,26.88
2023-05-25T14:42:17.996Z,27.42
2023-05-25T14:44:45.442Z,27.05
2023-05-25T14:47:13.196Z,26.92
2023-05-25T14:49:40.693Z,26.77
2023-05-25T14:52:08.091Z,26.75
2023-05-25T14:54:36.095Z,27.30
2023-05-25T14:57:03.497Z,27.11
2023-05-25T14:59:30.928Z,26.61
2023-05-25T15:01:58.645Z,27.04
2023-05-25T15:04:27.187Z,26.83
2023-05-25T15:06:54.695Z,26.58
2023-05-25T15:09:22.431Z,26.38
2023-05-25T15:11:49.849Z,26.39
2023-05-25T15:14:17.299Z,26.12
2023-05-25T15:16:45.116Z,26.02
2023-05-25T15:19:15.274Z,26.26
2023-05-25T15:21:45.485Z,26.22
2023-05-25T15:24:16.634Z,25.68
2023-05-25T15:26:44.218Z,26.11
2023-05-25T15:29:11.964Z,25.84
2023-05-25T15:31:39.422Z,25.99
2023-05-25T15:34:06.897Z,25.78
2023-05-25T15:36:34.607Z,26.06
2023-05-25T15:39:04.554Z,26.17
2023-05-25T15:41:31.961Z,26.11
2023-05-25T15:44:01.335Z,26.03
2023-05-25T15:46:29.046Z,25.65
2023-05-25T15:48:56.622Z,25.37
2023-05-25T15:51:24.351Z,25.75
2023-05-25T15:53:52.358Z,25.50
2023-05-25T15:56:19.833Z,25.16
2023-05-25T15:58:49.386Z,25.29
2023-05-25T16:01:16.895Z,25.59
2023-05-25T16:03:44.944Z,25.22
2023-05-25T16:06:12.470Z,25.45
2023-05-25T16:08:39.896Z,25.31
2023-05-25T16:11:09.299Z,25.36
2023-05-25T16:13:36.795Z,24.97
2023-05-25T16:16:04.280Z,24.95
2023-05-25T16:18:32.827Z,24.82
2023-05-25T16:21:00.260Z,24.83
2023-05-25T16:23:27.705Z,24.75
2023-05-25T16:25:55.424Z,25.34
2023-05-25T16:28:23.641Z,24.80
2023-05-25T16:30:53.988Z,24.68
2023-05-25T16:33:23.440Z,24.83
2023-05-25T16:35:53.693Z,24.72
2023-05-25T16:38:21.109Z,24.63
2023-05-25T16:40:48.794Z,24.61
2023-05-25T16:43:16.248Z,24.56
2023-05-25T16:45:43.987Z,24.66
2023-05-25T16:48:11.981Z,24.66
2023-05-25T16:50:39.432Z,24.64
2023-05-25T16:53:08.013Z,25.00
2023-05-25T16:55:35.794Z,24.47
2023-05-25T16:58:03.549Z,24.52
2023-05-25T17:00:30.969Z,24.69
2023-05-25T17:03:03.320Z,24.35
2023-05-25T17:05:31.536Z,24.53
2023-05-25T17:07:59.891Z,24.47
2023-05-25T17:10:27.332Z,24.63
2023-05-25T17:12:54.731Z,24.41
2023-05-25T17:15:22.458Z,24.19
2023-05-25T17:17:49.831Z,24.42
2023-05-25T17:20:17.482Z,24.20
2023-05-25T17:22:45.271Z,24.53
2023-05-25T17:25:12.747Z,24.28
2023-05-25T17:27:43.320Z,24.33
2023-05-25T17:30:11.632Z,24.22
2023-05-25T17:32:41.060Z,23.73
2023-05-25T17:35:09.204Z,23.79
2023-05-25T17:37:36.909Z,23.82
2023-05-25T17:40:05.416Z,24.16
2023-05-25T17:42:32.861Z,24.11
2023-05-25T17:45:00.612Z,23.91
2023-05-25T17:47:28.154Z,23.70
2023-05-25T17:49:56.011Z,23.72
2023-05-25T17:52:23.706Z,23.73
2023-05-25T17:54:51.107Z,23.73
2023-05-25T17:57:18.510Z,23.16
2023-05-25T17:59:46.204Z,23.22
2023-05-25T18:02:13.919Z,23.41
2023-05-25T18:04:41.802Z,23.63
2023-05-25T18:07:09.257Z,23.33
2023-05-25T18:09:36.648Z,22.97
2023-05-25T18:12:04.551Z,23.30
2023-05-25T18:14:35.304Z,23.31
2023-05-25T18:17:02.880Z,22.97
2023-05-25T18:19:30.692Z,22.85
2023-05-25T18:21:58.081Z,23.44
2023-05-25T18:24:25.557Z,22.66
2023-05-25T18:26:53.256Z,23.14
2023-05-25T18:29:21.532Z,23.21
2023-05-25T18:31:49.909Z,23.22
2023-05-25T18:34:17.623Z,22.86
2023-05-25T18:36:45.007Z,22.94
2023-05-25T18:39:12.415Z,23.29
2023-05-25T18:41:40.213Z,23.46
2023-05-25T18:44:08.128Z,23.38
2023-05-25T18:46:37.999Z,23.39
2023-05-25T18:49:06.066Z,23.39
2023-05-25T18:51:33.980Z,23.65
2023-05-25T18:54:01.440Z,23.76
2023-05-25T18:56:29.157Z,23.67
2023-05-25T18:58:57.137Z,23.72
2023-05-25T19:01:25.494Z,23.66
2023-05-25T19:03:54.272Z,23.61
2023-05-25T19:06:23.525Z,23.62
2023-05-25T19:08:51.213Z,23.45
2023-05-25T19:11:22.336Z,23.41
2023-05-25T19:13:49.806Z,23.06
2023-05-25T19:16:17.321Z,23.18
2023-05-25T19:18:45.194Z,23.36
2023-05-25T19:21:12.725Z,23.38
2023-05-25T19:23:41.679Z,23.43
2023-05-25T19:26:09.442Z,23.41
2023-05-25T19:28:36.889Z,23.43
2023-05-25T19:31:04.563Z,23.47
2023-05-25T19:33:32.213Z,23.40
2023-05-25T19:35:59.676Z,23.20
2023-05-25T19:38:34.097Z,22.96
2023-05-25T19:41:08.356Z,22.88
2023-05-25T19:43:36.199Z,22.93
2023-05-25T19:46:03.869Z,22.83
2023-05-25T19:48:31.888Z,22.47
2023-05-25T19:51:00.949Z,22.91
2023-05-25T19:53:29.993Z,22.79
2023-05-25T19:55:58.284Z,22.31
2023-05-25T19:58:25.686Z,22.41
2023-05-25T20:00:53.365Z,22.43
2023-05-25T20:03:21.337Z,21.79
2023-05-25T20:05:48.852Z,21.90
2023-05-25T20:08:16.273Z,21.36
2023-05-25T20:10:45.161Z,21.49
2023-05-25T20:13:12.667Z,21.22
2023-05-25T20:15:40.131Z,21.24
2023-05-25T20:18:07.990Z,21.33
2023-05-25T20:20:35.852Z,21.06
2023-05-25T20:23:03.314Z,21.43
2023-05-25T20:25:31.417Z,21.47
2023-05-25T20:27:58.857Z,21.49
2023-05-25T20:30:26.337Z,20.94
2023-05-25T20:32:54.045Z,21.12
2023-05-25T20:35:21.462Z,21.10
2023-05-25T20:37:48.939Z,21.05
2023-05-25T20:40:16.842Z,20.98
2023-05-25T20:42:44.332Z,21.10
2023-05-25T20:45:12.812Z,21.08
2023-05-25T20:47:40.812Z,21.00
2023-05-25T20:50:09.413Z,21.18
2023-05-25T20:52:37.828Z,21.36
2023-05-25T20:55:06.070Z,21.25
2023-05-25T20:57:33.480Z,21.31
2023-05-25T21:00:01.033Z,21.25
2023-05-25T21:02:28.972Z,20.51
2023-05-25T21:04:56.572Z,20.67
2023-05-25T21:07:24.017Z,20.46
2023-05-25T21:09:51.748Z,20.32
2023-05-25T21:12:19.364Z,20.34
2023-05-25T21:14:46.795Z,20.44
2023-05-25T21:17:15.009Z,20.74
2023-05-25T21:19:42.556Z,20.19
2023-05-25T21:22:11.353Z,20.33
2023-05-25T21:24:39.368Z,20.28
2023-05-25T21:27:06.809Z,20.16
2023-05-25T21:29:34.266Z,20.46
2023-05-25T21:32:01.993Z,20.72
2023-05-25T21:34:29.472Z,20.69
2023-05-25T21:36:56.902Z,20.16
2023-05-25T21:39:24.604Z,20.08
2023-05-25T21:41:52.035Z,20.12
2023-05-25T21:44:19.504Z,20.27
2023-05-25T21:46:47.408Z,20.39
2023-05-25T21:49:15.049Z,20.21
2023-05-25T21:51:42.480Z,20.03
2023-05-25T21:54:10.177Z,20.13
2023-05-25T21:56:37.585Z,20.24
2023-05-25T21:59:05.188Z,20.45
2023-05-25T22:01:32.997Z,20.31
2023-05-25T22:04:00.985Z,20.43
2023-05-25T22:06:28.770Z,20.33
2023-05-25T22:08:56.242Z,20.18
2023-05-25T22:11:24.587Z,19.63
2023-05-25T22:13:52.352Z,19.50
2023-05-25T22:16:20.063Z,19.76
2023-05-25T22:18:47.953Z,19.62
2023-05-25T22:21:15.810Z,19.96
2023-05-25T22:23:43.742Z,20.02
2023-05-25T22:26:11.477Z,20.14
2023-05-25T22:28:39.072Z,20.28
2023-05-25T22:31:06.687Z,20.18
2023-05-25T22:33:34.390Z,20.26
2023-05-25T22:36:01.827Z,20.15
2023-05-25T22:38:29.325Z,20.16
2023-05-25T22:40:57.066Z,19.74
2023-05-25T22:43:24.951Z,19.51
2023-05-25T22:45:54.115Z,19.53
2023-05-25T22:48:21.813Z,19.72
2023-05-25T22:50:49.245Z,19.60
2023-05-25T22:53:16.745Z,19.35
2023-05-25T22:55:47.200Z,19.60
2023-05-25T22:58:14.874Z,19.60
2023-05-25T23:00:42.409Z,19.29
2023-05-25T23:03:10.298Z,19.40
2023-05-25T23:05:37.859Z,19.28
2023-05-25T23:08:05.327Z,19.61
2023-05-25T23:10:33.010Z,19.31
2023-05-25T23:13:00.511Z,19.56
2023-05-25T23:15:28.590Z,19.16
2023-05-25T23:17:57.713Z,19.25
2023-05-25T23:20:25.222Z,19.25
2023-05-25T23:22:52.669Z,19.24
2023-05-25T23:25:20.529Z,19.55
2023-05-25T23:27:47.985Z,19.43
2023-05-25T23:30:15.562Z,19.20
2023-05-25T23:32:43.521Z,19.26
2023-05-25T23:35:11.002Z,19.52
2023-05-25T23:37:38.434Z,19.57
2023-05-25T23:40:06.719Z,19.56
2023-05-25T23:42:40.290Z,19.68
2023-05-25T23:45:08.488Z,19.45
2023-05-25T23:47:36.014Z,19.75
2023-05-25T23:50:06.628Z,19.39
2023-05-25T23:52:34.316Z,19.70
2023-05-25T23:55:01.848Z,19.35
2023-05-25T23:57:29.466Z,19.25
2023-05-25T23:59:57.139Z,19.19
